LVL61W LEBL-SBGR
Flight info
| Callsign | LVL61W |
|---|---|
| Flight time | N/A |
| Altitude | 31000 |
| Route | LOTOS7Q/24L LOTOS M985 MGA N851 VJF L82 RUNAX UL82 IBALU/N0482F330 UN857 TOVRA DCT LIMAL/N0491F320 N873 ISOKA/N0490F340 N873 IPERA UN873 ASEBA/N0488F360 UN873 NTL DCT OPTUR/N0480F380 DCT ASGIK UZ21 VUNOX |
| Aircraft | A339/H-SADE1E2E3GHIJ3J5M1P2RWXY/LB2D1 |
Departure
| Time | 2026-05-05 10:49 |
|---|---|
| Airport | Josep Tarradellas Barcelona-El Prat Airport (LEBL) |
Arrival
| Time | N/A |
|---|---|
| Airport | São Paulo/Guarulhos–Governor André Franco Montoro International Airport (SBGR) |
| Time | Latitude | Longitude | Altitude | Speed | Heading |
|---|---|---|---|---|---|
| 2026-05-05 09:46 | 41.29060 | 2.07098 | 9 ft | 0 kts | 155° |
| 2026-05-05 10:34 | 41.29066 | 2.07089 | 9 ft | 0 kts | 202° |
| 2026-05-05 10:34 | 41.29064 | 2.07092 | 9 ft | 0 kts | 184° |
| 2026-05-05 10:34 | 41.29085 | 2.07094 | 10 ft | 6 kts | 154° |
| 2026-05-05 10:35 | 41.29109 | 2.07051 | 10 ft | 6 kts | 82° |
| 2026-05-05 10:35 | 41.29090 | 2.07001 | 10 ft | 6 kts | 59° |
| 2026-05-05 10:35 | 41.29086 | 2.06992 | 10 ft | 0 kts | 62° |
| 2026-05-05 10:39 | 41.29087 | 2.06996 | 8 ft | 2 kts | 62° |
| 2026-05-05 10:39 | 41.29100 | 2.07028 | 8 ft | 6 kts | 62° |
| 2026-05-05 10:39 | 41.29128 | 2.07085 | 9 ft | 9 kts | 48° |
| 2026-05-05 10:39 | 41.29184 | 2.07108 | 8 ft | 9 kts | 23° |
| 2026-05-05 10:40 | 41.29219 | 2.07184 | 8 ft | 11 kts | 67° |
| 2026-05-05 10:40 | 41.29257 | 2.07289 | 8 ft | 14 kts | 64° |
| 2026-05-05 10:40 | 41.29299 | 2.07404 | 8 ft | 14 kts | 64° |
| 2026-05-05 10:40 | 41.29340 | 2.07526 | 8 ft | 15 kts | 71° |
| 2026-05-05 10:41 | 41.29376 | 2.07655 | 9 ft | 15 kts | 66° |
| 2026-05-05 10:41 | 41.29421 | 2.07789 | 8 ft | 16 kts | 65° |
| 2026-05-05 10:41 | 41.29466 | 2.07927 | 8 ft | 16 kts | 66° |
| 2026-05-05 10:41 | 41.29513 | 2.08068 | 8 ft | 17 kts | 66° |
| 2026-05-05 10:42 | 41.29524 | 2.08280 | 8 ft | 12 kts | 148° |
| 2026-05-05 10:42 | 41.29468 | 2.08320 | 8 ft | 13 kts | 155° |
| 2026-05-05 10:42 | 41.29383 | 2.08372 | 8 ft | 14 kts | 155° |
| 2026-05-05 10:43 | 41.29291 | 2.08428 | 8 ft | 15 kts | 155° |
| 2026-05-05 10:43 | 41.29193 | 2.08489 | 9 ft | 16 kts | 155° |
| 2026-05-05 10:43 | 41.29091 | 2.08551 | 10 ft | 16 kts | 155° |
| 2026-05-05 10:43 | 41.28994 | 2.08608 | 13 ft | 15 kts | 156° |
| 2026-05-05 10:44 | 41.28895 | 2.08669 | 11 ft | 17 kts | 146° |
| 2026-05-05 10:44 | 41.28892 | 2.08813 | 9 ft | 17 kts | 66° |
| 2026-05-05 10:44 | 41.28940 | 2.08957 | 9 ft | 17 kts | 66° |
| 2026-05-05 10:44 | 41.28989 | 2.09104 | 9 ft | 18 kts | 66° |
| 2026-05-05 10:45 | 41.29040 | 2.09256 | 9 ft | 18 kts | 66° |
| 2026-05-05 10:45 | 41.29092 | 2.09410 | 9 ft | 18 kts | 66° |
| 2026-05-05 10:45 | 41.29147 | 2.09565 | 9 ft | 19 kts | 65° |
| 2026-05-05 10:45 | 41.29202 | 2.09723 | 9 ft | 19 kts | 65° |
| 2026-05-05 10:46 | 41.29259 | 2.09885 | 9 ft | 19 kts | 65° |
| 2026-05-05 10:46 | 41.29321 | 2.10029 | 9 ft | 16 kts | 62° |
| 2026-05-05 10:46 | 41.29365 | 2.10162 | 9 ft | 16 kts | 75° |
| 2026-05-05 10:46 | 41.29338 | 2.10254 | 9 ft | 0 kts | 137° |
| 2026-05-05 10:47 | 41.29331 | 2.10263 | 9 ft | 6 kts | 137° |
| 2026-05-05 10:47 | 41.29246 | 2.10312 | 10 ft | 16 kts | 180° |
| 2026-05-05 10:47 | 41.29192 | 2.10249 | 11 ft | 0 kts | 244° |
| 2026-05-05 10:47 | 41.29190 | 2.10243 | 11 ft | 8 kts | 244° |
| 2026-05-05 10:48 | 41.29067 | 2.09887 | 13 ft | 76 kts | 246° |
| 2026-05-05 10:48 | 41.28759 | 2.08981 | 12 ft | 137 kts | 245° |
| 2026-05-05 10:48 | 41.28310 | 2.07680 | 50 ft | 177 kts | 245° |
| 2026-05-05 10:48 | 41.27751 | 2.06162 | 513 ft | 181 kts | 237° |
| 2026-05-05 10:49 | 41.26865 | 2.04790 | 690 ft | 213 kts | 226° |
| 2026-05-05 10:49 | 41.25743 | 2.03334 | 1037 ft | 232 kts | 222° |
| 2026-05-05 10:49 | 41.24298 | 2.02339 | 1803 ft | 235 kts | 196° |
| 2026-05-05 10:49 | 41.22651 | 2.02137 | 2714 ft | 241 kts | 175° |
| 2026-05-05 10:50 | 41.20920 | 2.02433 | 3365 ft | 261 kts | 172° |
| 2026-05-05 10:50 | 41.19106 | 2.02971 | 3848 ft | 276 kts | 164° |
| 2026-05-05 10:50 | 41.17218 | 2.03591 | 4248 ft | 282 kts | 176° |
| 2026-05-05 10:50 | 41.15289 | 2.03372 | 4807 ft | 279 kts | 194° |
| 2026-05-05 10:51 | 41.13427 | 2.02617 | 5284 ft | 281 kts | 201° |
| 2026-05-05 10:51 | 41.11627 | 2.01595 | 5817 ft | 282 kts | 205° |
| 2026-05-05 10:51 | 41.09869 | 2.00443 | 6343 ft | 283 kts | 207° |
| 2026-05-05 10:51 | 41.08163 | 1.99134 | 6783 ft | 285 kts | 219° |
| 2026-05-05 10:52 | 41.06908 | 1.97126 | 7335 ft | 285 kts | 242° |
| 2026-05-05 10:52 | 41.06295 | 1.94633 | 7865 ft | 286 kts | 255° |
| 2026-05-05 10:52 | 41.05827 | 1.92062 | 8381 ft | 287 kts | 254° |
| 2026-05-05 10:52 | 41.05327 | 1.89494 | 8910 ft | 288 kts | 252° |
| 2026-05-05 10:53 | 41.04644 | 1.87007 | 9474 ft | 287 kts | 246° |
| 2026-05-05 10:53 | 41.03893 | 1.84558 | 9967 ft | 288 kts | 245° |
| 2026-05-05 10:53 | 41.02825 | 1.82309 | 10401 ft | 289 kts | 232° |
| 2026-05-05 10:53 | 41.01590 | 1.80201 | 10860 ft | 291 kts | 231° |
| 2026-05-05 10:54 | 41.00325 | 1.78093 | 11293 ft | 294 kts | 231° |
| 2026-05-05 10:54 | 40.99029 | 1.75915 | 11406 ft | 308 kts | 231° |
| 2026-05-05 10:54 | 40.97694 | 1.73633 | 11643 ft | 317 kts | 232° |
| 2026-05-05 10:54 | 40.96347 | 1.71307 | 12095 ft | 319 kts | 232° |
| 2026-05-05 10:55 | 40.95017 | 1.68998 | 12564 ft | 321 kts | 232° |
| 2026-05-05 10:55 | 40.93641 | 1.66609 | 12983 ft | 324 kts | 232° |
| 2026-05-05 10:55 | 40.92271 | 1.64232 | 13439 ft | 326 kts | 232° |
| 2026-05-05 10:55 | 40.90911 | 1.61876 | 13869 ft | 328 kts | 232° |
| 2026-05-05 10:56 | 40.89513 | 1.59457 | 14337 ft | 327 kts | 232° |
| 2026-05-05 10:56 | 40.88149 | 1.57101 | 14772 ft | 327 kts | 232° |
| 2026-05-05 10:56 | 40.86762 | 1.54707 | 15235 ft | 327 kts | 232° |
| 2026-05-05 10:56 | 40.85376 | 1.52319 | 15671 ft | 328 kts | 232° |
| 2026-05-05 10:57 | 40.83988 | 1.49927 | 16120 ft | 328 kts | 232° |
| 2026-05-05 10:57 | 40.82600 | 1.47538 | 16557 ft | 329 kts | 233° |
| 2026-05-05 10:57 | 40.81204 | 1.45136 | 17006 ft | 329 kts | 233° |
| 2026-05-05 10:57 | 40.79814 | 1.42746 | 17435 ft | 330 kts | 233° |
| 2026-05-05 10:58 | 40.78397 | 1.40311 | 17882 ft | 330 kts | 233° |
| 2026-05-05 10:58 | 40.77015 | 1.37937 | 18291 ft | 331 kts | 233° |
| 2026-05-05 10:58 | 40.75608 | 1.35524 | 18671 ft | 332 kts | 233° |
| 2026-05-05 10:58 | 40.74181 | 1.33076 | 19058 ft | 332 kts | 233° |
| 2026-05-05 10:59 | 40.72791 | 1.30694 | 19423 ft | 333 kts | 233° |
| 2026-05-05 10:59 | 40.71378 | 1.28273 | 19821 ft | 333 kts | 233° |
| 2026-05-05 10:59 | 40.69943 | 1.25817 | 20194 ft | 334 kts | 233° |
| 2026-05-05 10:59 | 40.68542 | 1.23421 | 20572 ft | 335 kts | 233° |
| 2026-05-05 11:00 | 40.67118 | 1.20987 | 20959 ft | 336 kts | 233° |
| 2026-05-05 11:00 | 40.65699 | 1.18565 | 21348 ft | 337 kts | 233° |
| 2026-05-05 11:00 | 40.64268 | 1.16122 | 21715 ft | 338 kts | 233° |
| 2026-05-05 11:00 | 40.62812 | 1.13641 | 22088 ft | 339 kts | 233° |
| 2026-05-05 11:01 | 40.61383 | 1.11206 | 22471 ft | 340 kts | 233° |
| 2026-05-05 11:01 | 40.59951 | 1.08768 | 22865 ft | 341 kts | 233° |
| 2026-05-05 11:01 | 40.58483 | 1.06272 | 23250 ft | 342 kts | 233° |
| 2026-05-05 11:01 | 40.57040 | 1.03818 | 23594 ft | 344 kts | 233° |
| 2026-05-05 11:02 | 40.55576 | 1.01333 | 23900 ft | 345 kts | 233° |
| 2026-05-05 11:02 | 40.54025 | 0.98914 | 24212 ft | 347 kts | 228° |
| 2026-05-05 11:02 | 40.52377 | 0.96589 | 24527 ft | 348 kts | 229° |
| 2026-05-05 11:02 | 40.50737 | 0.94258 | 24829 ft | 349 kts | 229° |
| 2026-05-05 11:03 | 40.49090 | 0.91906 | 25143 ft | 350 kts | 229° |
| 2026-05-05 11:03 | 40.47437 | 0.89546 | 25447 ft | 351 kts | 229° |
| 2026-05-05 11:03 | 40.45783 | 0.87185 | 25762 ft | 352 kts | 229° |
| 2026-05-05 11:03 | 40.44119 | 0.84814 | 26061 ft | 354 kts | 229° |
| 2026-05-05 11:04 | 40.42448 | 0.82435 | 26389 ft | 354 kts | 229° |
| 2026-05-05 11:04 | 40.40775 | 0.80056 | 26667 ft | 356 kts | 229° |
| 2026-05-05 11:04 | 40.39092 | 0.77664 | 26948 ft | 358 kts | 229° |
| 2026-05-05 11:04 | 40.37399 | 0.75259 | 27270 ft | 359 kts | 229° |
| 2026-05-05 11:05 | 40.35706 | 0.72857 | 27550 ft | 359 kts | 229° |
| 2026-05-05 11:05 | 40.34009 | 0.70451 | 27819 ft | 361 kts | 229° |
| 2026-05-05 11:05 | 40.32300 | 0.68032 | 28102 ft | 362 kts | 229° |
| 2026-05-05 11:05 | 40.30584 | 0.65603 | 28381 ft | 363 kts | 229° |
| 2026-05-05 11:06 | 40.28865 | 0.63172 | 28633 ft | 365 kts | 229° |
| 2026-05-05 11:06 | 40.27136 | 0.60729 | 28906 ft | 366 kts | 229° |
| 2026-05-05 11:06 | 40.25399 | 0.58277 | 29162 ft | 367 kts | 229° |
| 2026-05-05 11:06 | 40.23663 | 0.55827 | 29422 ft | 368 kts | 229° |
| 2026-05-05 11:07 | 40.21912 | 0.53359 | 29683 ft | 370 kts | 229° |
| 2026-05-05 11:07 | 40.20163 | 0.50896 | 29951 ft | 371 kts | 229° |
| 2026-05-05 11:07 | 40.18403 | 0.48418 | 30182 ft | 372 kts | 229° |
| 2026-05-05 11:07 | 40.16638 | 0.45935 | 30420 ft | 373 kts | 229° |
| 2026-05-05 11:08 | 40.14869 | 0.43450 | 30613 ft | 375 kts | 229° |
| 2026-05-05 11:08 | 40.13087 | 0.40947 | 30840 ft | 376 kts | 229° |
| 2026-05-05 11:08 | 40.11295 | 0.38433 | 30951 ft | 380 kts | 229° |
| 2026-05-05 11:09 | 40.07630 | 0.33294 | 30951 ft | 392 kts | 229° |
| 2026-05-05 11:09 | 40.03904 | 0.28085 | 30951 ft | 392 kts | 229° |
| 2026-05-05 11:10 | 40.00176 | 0.22881 | 30952 ft | 392 kts | 229° |
| 2026-05-05 11:10 | 39.96449 | 0.17687 | 30948 ft | 392 kts | 229° |
| 2026-05-05 11:10 | 39.94582 | 0.15086 | 30768 ft | 393 kts | 229° |
| 2026-05-05 11:11 | 39.92722 | 0.12499 | 30518 ft | 390 kts | 229° |
| 2026-05-05 11:11 | 39.90866 | 0.09921 | 30318 ft | 389 kts | 229° |
| 2026-05-05 11:11 | 39.89018 | 0.07356 | 30260 ft | 388 kts | 229° |
| 2026-05-05 11:11 | 39.87165 | 0.04783 | 30362 ft | 390 kts | 229° |
| 2026-05-05 11:12 | 39.85307 | 0.02208 | 30620 ft | 390 kts | 229° |
| 2026-05-05 11:12 | 39.83448 | -0.00368 | 30811 ft | 392 kts | 229° |
| 2026-05-05 11:12 | 39.81576 | -0.02959 | 30934 ft | 394 kts | 229° |
| 2026-05-05 11:13 | 39.77825 | -0.08143 | 30931 ft | 393 kts | 229° |
| 2026-05-05 11:13 | 39.74076 | -0.13317 | 30933 ft | 394 kts | 229° |
| 2026-05-05 11:14 | 39.70318 | -0.18494 | 30930 ft | 394 kts | 229° |
| 2026-05-05 11:14 | 39.66585 | -0.23628 | 30932 ft | 394 kts | 229° |
| 2026-05-05 11:15 | 39.62816 | -0.28803 | 30932 ft | 394 kts | 229° |
| 2026-05-05 11:15 | 39.59052 | -0.33963 | 30935 ft | 394 kts | 229° |
| 2026-05-05 11:16 | 39.55271 | -0.39135 | 30937 ft | 395 kts | 229° |
| 2026-05-05 11:16 | 39.51493 | -0.44296 | 30936 ft | 395 kts | 229° |
| 2026-05-05 11:17 | 39.47803 | -0.49542 | 30938 ft | 393 kts | 234° |
| 2026-05-05 11:17 | 39.44511 | -0.55206 | 30938 ft | 393 kts | 235° |
| 2026-05-05 11:18 | 39.41209 | -0.60858 | 30937 ft | 393 kts | 234° |
| 2026-05-05 11:18 | 39.37902 | -0.66491 | 30937 ft | 393 kts | 234° |
| 2026-05-05 11:19 | 39.35127 | -0.71210 | 30938 ft | 394 kts | 234° |
| 2026-05-05 11:19 | 39.31811 | -0.76837 | 30940 ft | 394 kts | 234° |
| 2026-05-05 11:20 | 39.28486 | -0.82478 | 30945 ft | 394 kts | 234° |
| 2026-05-05 11:20 | 39.25161 | -0.88101 | 30951 ft | 394 kts | 234° |
| 2026-05-05 11:21 | 39.21827 | -0.93734 | 30961 ft | 395 kts | 234° |
| 2026-05-05 11:21 | 39.18488 | -0.99362 | 30964 ft | 396 kts | 234° |
| 2026-05-05 11:22 | 39.15140 | -1.05000 | 30970 ft | 396 kts | 234° |
| 2026-05-05 11:22 | 39.11786 | -1.10634 | 30970 ft | 397 kts | 234° |
| 2026-05-05 11:23 | 39.08431 | -1.16259 | 30966 ft | 397 kts | 234° |
| 2026-05-05 11:23 | 39.05068 | -1.21890 | 30973 ft | 397 kts | 234° |
| 2026-05-05 11:24 | 39.01722 | -1.27483 | 30969 ft | 398 kts | 234° |
| 2026-05-05 11:24 | 38.98349 | -1.33110 | 30986 ft | 397 kts | 234° |
| 2026-05-05 11:25 | 38.94968 | -1.38740 | 30988 ft | 398 kts | 234° |
| 2026-05-05 11:25 | 38.91582 | -1.44368 | 30982 ft | 398 kts | 234° |
| 2026-05-05 11:26 | 38.88193 | -1.49994 | 30987 ft | 399 kts | 234° |
| 2026-05-05 11:26 | 38.84795 | -1.55624 | 30991 ft | 399 kts | 234° |
| 2026-05-05 11:27 | 38.81389 | -1.61256 | 30988 ft | 400 kts | 234° |
| 2026-05-05 11:27 | 38.77982 | -1.66880 | 30989 ft | 400 kts | 234° |
| 2026-05-05 11:28 | 38.74565 | -1.72512 | 30981 ft | 400 kts | 234° |
| 2026-05-05 11:28 | 38.71145 | -1.78139 | 30984 ft | 400 kts | 234° |
| 2026-05-05 11:29 | 38.67721 | -1.83761 | 30988 ft | 401 kts | 234° |
| 2026-05-05 11:29 | 38.64292 | -1.89382 | 30989 ft | 400 kts | 234° |
| 2026-05-05 11:30 | 38.60860 | -1.94999 | 30986 ft | 401 kts | 234° |
| 2026-05-05 11:30 | 38.57429 | -2.00603 | 30986 ft | 401 kts | 234° |
| 2026-05-05 11:31 | 38.53990 | -2.06210 | 30982 ft | 400 kts | 234° |
| 2026-05-05 11:31 | 38.50556 | -2.11802 | 30991 ft | 401 kts | 234° |
| 2026-05-05 11:32 | 38.47100 | -2.17421 | 30991 ft | 401 kts | 234° |
| 2026-05-05 11:32 | 38.43647 | -2.23023 | 30992 ft | 402 kts | 234° |
| 2026-05-05 11:33 | 38.40193 | -2.28618 | 30991 ft | 403 kts | 234° |
| 2026-05-05 11:33 | 38.36720 | -2.34231 | 30997 ft | 403 kts | 234° |
| 2026-05-05 11:34 | 38.32937 | -2.39515 | 30997 ft | 404 kts | 230° |
| 2026-05-05 11:34 | 38.29042 | -2.44727 | 30986 ft | 406 kts | 230° |
| 2026-05-05 11:35 | 38.25156 | -2.49941 | 30988 ft | 406 kts | 230° |
| 2026-05-05 11:35 | 38.21273 | -2.55143 | 31011 ft | 405 kts | 230° |
| 2026-05-05 11:36 | 38.17379 | -2.60354 | 31012 ft | 408 kts | 230° |
| 2026-05-05 11:36 | 38.13463 | -2.65579 | 31002 ft | 407 kts | 230° |
| 2026-05-05 11:37 | 38.09557 | -2.70785 | 31007 ft | 407 kts | 230° |
| 2026-05-05 11:37 | 38.05641 | -2.75999 | 31004 ft | 408 kts | 230° |
| 2026-05-05 11:38 | 38.01717 | -2.81210 | 31002 ft | 409 kts | 230° |
| 2026-05-05 11:38 | 37.97813 | -2.86390 | 31007 ft | 409 kts | 230° |
| 2026-05-05 11:39 | 37.93886 | -2.91583 | 31006 ft | 410 kts | 230° |
| 2026-05-05 11:39 | 37.89945 | -2.96791 | 31003 ft | 409 kts | 230° |
| 2026-05-05 11:40 | 37.85990 | -3.02011 | 31007 ft | 411 kts | 230° |
| 2026-05-05 11:40 | 37.82016 | -3.07245 | 31003 ft | 410 kts | 230° |
| 2026-05-05 11:41 | 37.78087 | -3.12422 | 30996 ft | 411 kts | 230° |
| 2026-05-05 11:41 | 37.74112 | -3.17637 | 30995 ft | 412 kts | 230° |
| 2026-05-05 11:42 | 37.70135 | -3.22845 | 30991 ft | 412 kts | 230° |
| 2026-05-05 11:42 | 37.66146 | -3.28063 | 30993 ft | 413 kts | 230° |
| 2026-05-05 11:43 | 37.62151 | -3.33286 | 30991 ft | 414 kts | 230° |
| 2026-05-05 11:43 | 37.58144 | -3.38515 | 30990 ft | 415 kts | 230° |
| 2026-05-05 11:44 | 37.54134 | -3.43736 | 30990 ft | 415 kts | 230° |
| 2026-05-05 11:44 | 37.50112 | -3.48965 | 30994 ft | 416 kts | 230° |
| 2026-05-05 11:45 | 37.46080 | -3.54196 | 31000 ft | 416 kts | 230° |
| 2026-05-05 11:45 | 37.42044 | -3.59426 | 31000 ft | 417 kts | 230° |
| 2026-05-05 11:46 | 37.38002 | -3.64657 | 31002 ft | 418 kts | 229° |
| 2026-05-05 11:46 | 37.33924 | -3.69922 | 30994 ft | 419 kts | 229° |
| 2026-05-05 11:47 | 37.29857 | -3.75168 | 30998 ft | 419 kts | 229° |
| 2026-05-05 11:47 | 37.25789 | -3.80405 | 31019 ft | 419 kts | 229° |
| 2026-05-05 11:48 | 37.19681 | -3.88250 | 31019 ft | 419 kts | 229° |
| 2026-05-05 11:48 | 37.15598 | -3.93484 | 31016 ft | 420 kts | 229° |
| 2026-05-05 11:49 | 37.11508 | -3.98719 | 31006 ft | 420 kts | 229° |
| 2026-05-05 11:49 | 37.07414 | -4.03950 | 31001 ft | 421 kts | 229° |
| 2026-05-05 11:50 | 37.03310 | -4.09185 | 30991 ft | 421 kts | 229° |
| 2026-05-05 11:50 | 36.99201 | -4.14419 | 30979 ft | 422 kts | 229° |
| 2026-05-05 11:51 | 36.95106 | -4.19630 | 30981 ft | 424 kts | 229° |
| 2026-05-05 11:51 | 36.90976 | -4.24873 | 30984 ft | 422 kts | 229° |
| 2026-05-05 11:52 | 36.86835 | -4.30120 | 30996 ft | 426 kts | 229° |
| 2026-05-05 11:52 | 36.82865 | -4.35557 | 30985 ft | 421 kts | 236° |
| 2026-05-05 11:53 | 36.79987 | -4.41875 | 30991 ft | 419 kts | 249° |
| 2026-05-05 11:53 | 36.78012 | -4.48703 | 30999 ft | 418 kts | 251° |
| 2026-05-05 11:54 | 36.76030 | -4.55531 | 30998 ft | 419 kts | 251° |
| 2026-05-05 11:54 | 36.74035 | -4.62344 | 30988 ft | 419 kts | 251° |
| 2026-05-05 11:55 | 36.72035 | -4.69163 | 30983 ft | 419 kts | 251° |
| 2026-05-05 11:55 | 36.70030 | -4.75983 | 30984 ft | 419 kts | 251° |
| 2026-05-05 11:56 | 36.68021 | -4.82805 | 30983 ft | 420 kts | 251° |
| 2026-05-05 11:56 | 36.66005 | -4.89630 | 30996 ft | 420 kts | 251° |
| 2026-05-05 11:57 | 36.63986 | -4.96445 | 31002 ft | 420 kts | 251° |
| 2026-05-05 11:57 | 36.61961 | -5.03275 | 31000 ft | 421 kts | 251° |
| 2026-05-05 11:58 | 36.59928 | -5.10103 | 31006 ft | 420 kts | 251° |
| 2026-05-05 11:58 | 36.57898 | -5.16915 | 31010 ft | 422 kts | 251° |
| 2026-05-05 11:59 | 36.55855 | -5.23745 | 31012 ft | 420 kts | 251° |
| 2026-05-05 11:59 | 36.53814 | -5.30557 | 31020 ft | 421 kts | 251° |
| 2026-05-05 12:00 | 36.51763 | -5.37385 | 31024 ft | 421 kts | 251° |
| 2026-05-05 12:00 | 36.49381 | -5.44043 | 31031 ft | 422 kts | 243° |
| 2026-05-05 12:01 | 36.46883 | -5.49274 | 31033 ft | 425 kts | 242° |
| 2026-05-05 12:01 | 36.43895 | -5.55586 | 31034 ft | 424 kts | 242° |
| 2026-05-05 12:02 | 36.40913 | -5.61893 | 31035 ft | 424 kts | 242° |
| 2026-05-05 12:02 | 36.37917 | -5.68212 | 31040 ft | 424 kts | 242° |
| 2026-05-05 12:03 | 36.34923 | -5.74515 | 31042 ft | 424 kts | 242° |
| 2026-05-05 12:03 | 36.31919 | -5.80826 | 31045 ft | 425 kts | 242° |
| 2026-05-05 12:04 | 36.28918 | -5.87118 | 31053 ft | 424 kts | 242° |
| 2026-05-05 12:04 | 36.25908 | -5.93417 | 31049 ft | 425 kts | 242° |
| 2026-05-05 12:05 | 36.22721 | -5.99581 | 31057 ft | 427 kts | 235° |
| 2026-05-05 12:05 | 36.19106 | -6.05417 | 31066 ft | 427 kts | 236° |
| 2026-05-05 12:06 | 36.15502 | -6.11280 | 31062 ft | 428 kts | 236° |
| 2026-05-05 12:06 | 36.11898 | -6.17140 | 31067 ft | 428 kts | 236° |
| 2026-05-05 12:07 | 36.08288 | -6.22998 | 31069 ft | 428 kts | 235° |
| 2026-05-05 12:07 | 36.04674 | -6.28852 | 31068 ft | 429 kts | 235° |
| 2026-05-05 12:08 | 36.01053 | -6.34707 | 31067 ft | 429 kts | 235° |
| 2026-05-05 12:08 | 35.97428 | -6.40558 | 31075 ft | 430 kts | 235° |
| 2026-05-05 12:09 | 35.93820 | -6.46373 | 31071 ft | 430 kts | 235° |
| 2026-05-05 12:09 | 35.90179 | -6.52229 | 31069 ft | 430 kts | 235° |
| 2026-05-05 12:10 | 35.86534 | -6.58082 | 31067 ft | 430 kts | 235° |
| 2026-05-05 12:10 | 35.82885 | -6.63931 | 31067 ft | 430 kts | 235° |
| 2026-05-05 12:11 | 35.79230 | -6.69774 | 31071 ft | 431 kts | 235° |
| 2026-05-05 12:11 | 35.75589 | -6.75593 | 31072 ft | 431 kts | 235° |
| 2026-05-05 12:12 | 35.71914 | -6.81459 | 31075 ft | 431 kts | 234° |
| 2026-05-05 12:12 | 35.68241 | -6.87308 | 31079 ft | 432 kts | 234° |
| 2026-05-05 12:13 | 35.64566 | -6.93151 | 31082 ft | 432 kts | 234° |
| 2026-05-05 12:13 | 35.60886 | -6.98992 | 31085 ft | 433 kts | 234° |
| 2026-05-05 12:14 | 35.57196 | -7.04838 | 31085 ft | 433 kts | 234° |
| 2026-05-05 12:14 | 35.53504 | -7.10675 | 31089 ft | 433 kts | 234° |
| 2026-05-05 12:15 | 35.49380 | -7.16096 | 31091 ft | 437 kts | 226° |
| 2026-05-05 12:15 | 35.44975 | -7.21217 | 31095 ft | 436 kts | 226° |
| 2026-05-05 12:16 | 35.40574 | -7.26356 | 31093 ft | 437 kts | 226° |
| 2026-05-05 12:16 | 35.36180 | -7.31492 | 31094 ft | 437 kts | 226° |
| 2026-05-05 12:17 | 35.31781 | -7.36626 | 31093 ft | 437 kts | 226° |
| 2026-05-05 12:17 | 35.27374 | -7.41760 | 31093 ft | 437 kts | 226° |
| 2026-05-05 12:18 | 35.22968 | -7.46881 | 31095 ft | 437 kts | 226° |
| 2026-05-05 12:18 | 35.18556 | -7.52002 | 31086 ft | 437 kts | 226° |
| 2026-05-05 12:19 | 35.14146 | -7.57111 | 31089 ft | 437 kts | 225° |
| 2026-05-05 12:19 | 35.09724 | -7.62225 | 31112 ft | 437 kts | 225° |
| 2026-05-05 12:20 | 35.05298 | -7.67337 | 31118 ft | 438 kts | 225° |
| 2026-05-05 12:20 | 35.00871 | -7.72441 | 31107 ft | 438 kts | 225° |
| 2026-05-05 12:21 | 34.96439 | -7.77544 | 31088 ft | 439 kts | 225° |
| 2026-05-05 12:22 | 34.88045 | -7.87187 | 31083 ft | 439 kts | 225° |
| 2026-05-05 12:22 | 34.83598 | -7.92283 | 31104 ft | 439 kts | 225° |
| 2026-05-05 12:23 | 34.79167 | -7.97354 | 31313 ft | 442 kts | 225° |
| 2026-05-05 12:23 | 34.76888 | -7.99958 | 31492 ft | 443 kts | 225° |
| 2026-05-05 12:23 | 34.74637 | -8.02529 | 31644 ft | 444 kts | 225° |
| 2026-05-05 12:24 | 34.72381 | -8.05103 | 31761 ft | 446 kts | 225° |
| 2026-05-05 12:24 | 34.70115 | -8.07687 | 31893 ft | 447 kts | 225° |
| 2026-05-05 12:24 | 34.67871 | -8.10244 | 31995 ft | 448 kts | 225° |
| 2026-05-05 12:24 | 34.65567 | -8.12867 | 32138 ft | 449 kts | 225° |
| 2026-05-05 12:25 | 34.63318 | -8.15425 | 32263 ft | 449 kts | 225° |
| 2026-05-05 12:25 | 34.61307 | -8.17710 | 32397 ft | 449 kts | 225° |
| 2026-05-05 12:25 | 34.59060 | -8.20263 | 32539 ft | 449 kts | 225° |
| 2026-05-05 12:25 | 34.56840 | -8.22782 | 32695 ft | 448 kts | 225° |
| 2026-05-05 12:26 | 34.54564 | -8.25363 | 32840 ft | 448 kts | 225° |
| 2026-05-05 12:26 | 34.52286 | -8.27946 | 32984 ft | 448 kts | 225° |
| 2026-05-05 12:26 | 34.50014 | -8.30518 | 33131 ft | 448 kts | 225° |
| 2026-05-05 12:26 | 34.48125 | -8.32655 | 33259 ft | 447 kts | 225° |
| 2026-05-05 12:27 | 34.45853 | -8.35224 | 33398 ft | 447 kts | 225° |
| 2026-05-05 12:27 | 34.43572 | -8.37801 | 33547 ft | 447 kts | 225° |
| 2026-05-05 12:27 | 34.41298 | -8.40369 | 33692 ft | 447 kts | 225° |
| 2026-05-05 12:27 | 34.39029 | -8.42929 | 33844 ft | 446 kts | 225° |
| 2026-05-05 12:28 | 34.36757 | -8.45490 | 33992 ft | 446 kts | 225° |
| 2026-05-05 12:28 | 34.34489 | -8.48044 | 34092 ft | 446 kts | 225° |
| 2026-05-05 12:28 | 34.29952 | -8.53148 | 34105 ft | 445 kts | 225° |
| 2026-05-05 12:29 | 34.25409 | -8.58253 | 34106 ft | 445 kts | 225° |
| 2026-05-05 12:29 | 34.20869 | -8.63344 | 34103 ft | 445 kts | 225° |
| 2026-05-05 12:30 | 34.16334 | -8.68423 | 34106 ft | 445 kts | 225° |
| 2026-05-05 12:30 | 34.11782 | -8.73512 | 34107 ft | 445 kts | 225° |
| 2026-05-05 12:31 | 34.07242 | -8.78581 | 34103 ft | 445 kts | 225° |
| 2026-05-05 12:31 | 34.02691 | -8.83653 | 34104 ft | 445 kts | 225° |
| 2026-05-05 12:32 | 33.98149 | -8.88709 | 34101 ft | 445 kts | 225° |
| 2026-05-05 12:32 | 33.93570 | -8.93798 | 34101 ft | 444 kts | 224° |
| 2026-05-05 12:33 | 33.89798 | -8.97983 | 34104 ft | 444 kts | 225° |